Time;durP1;ratioP1;P1;durP2;ratioP2;P2;SDS_P1;SDS_P2;PMS_P1;PMS_P2;Temp;Humidity;BMP_temperature;BMP_pressure;BME280_temperature;BME280_humidity;BME280_pressure;Samples;Min_cycle;Max_cycle;Signal;HPM_P1;HPM_P2
2022/07/01 00:02:29;;;;;;;0.70;0.65;;;19.80;98.20;;;;;;10136884;28;20036;-58
2022/07/01 00:07:20;;;;;;;2.28;0.95;;;19.70;98.20;;;;;;10135841;28;20033;-57
2022/07/01 00:12:11;;;;;;;1.30;0.50;;;19.70;98.40;;;;;;10136410;28;20053;-57
2022/07/01 00:17:01;;;;;;;1.77;0.70;;;19.80;98.40;;;;;;10121379;28;20029;-57
2022/07/01 00:21:52;;;;;;;0.98;0.70;;;19.80;98.30;;;;;;10133200;28;20070;-56
2022/07/01 00:26:43;;;;;;;1.67;0.70;;;19.70;98.40;;;;;;10132615;28;20033;-59
2022/07/01 00:31:34;;;;;;;2.53;0.63;;;19.60;98.50;;;;;;10125631;28;20481;-58
2022/07/01 00:36:24;;;;;;;0.50;0.50;;;19.50;98.70;;;;;;10138302;28;20036;-59
2022/07/01 00:41:16;;;;;;;0.47;0.43;;;19.20;98.70;;;;;;10134950;28;20025;-58
2022/07/01 00:46:06;;;;;;;0.40;0.32;;;19.10;98.70;;;;;;10134789;28;20400;-59
2022/07/01 00:50:58;;;;;;;0.50;0.40;;;19.20;98.50;;;;;;10135166;28;20441;-61
2022/07/01 00:55:49;;;;;;;1.80;0.40;;;19.00;98.40;;;;;;10135199;28;20687;-58
2022/07/01 01:00:39;;;;;;;0.50;0.40;;;18.90;98.40;;;;;;10134321;28;20058;-58
2022/07/01 01:05:30;;;;;;;2.28;0.70;;;18.90;98.30;;;;;;10133659;28;20084;-59
2022/07/01 01:10:23;;;;;;;0.30;0.30;;;18.80;98.30;;;;;;10133668;28;20060;-56
2022/07/01 01:15:18;;;;;;;0.75;0.35;;;19.00;98.20;;;;;;10132830;28;20581;-58
2022/07/01 01:20:15;;;;;;;0.30;0.30;;;18.90;98.00;;;;;;10133603;28;20021;-57
2022/07/01 01:25:06;;;;;;;0.45;0.40;;;18.80;98.20;;;;;;10134565;28;20044;-58
2022/07/01 01:29:57;;;;;;;1.05;0.40;;;18.60;98.30;;;;;;10106970;28;20133;-60
2022/07/01 01:34:47;;;;;;;0.63;0.60;;;18.70;98.20;;;;;;10134100;28;20067;-58
2022/07/01 01:39:38;;;;;;;1.05;0.40;;;18.80;98.20;;;;;;10134365;28;20059;-59
2022/07/01 01:44:29;;;;;;;1.20;0.40;;;18.80;98.30;;;;;;10134270;28;20383;-58
2022/07/01 01:49:19;;;;;;;1.20;0.47;;;18.70;98.30;;;;;;10132239;28;20043;-58
2022/07/01 01:54:10;;;;;;;2.67;0.52;;;18.70;98.30;;;;;;10113156;28;20021;-57
2022/07/01 01:59:00;;;;;;;0.20;0.20;;;18.70;98.50;;;;;;10131585;28;20186;-59
2022/07/01 02:03:52;;;;;;;0.70;0.50;;;18.50;98.50;;;;;;10132037;28;20569;-59
2022/07/01 02:08:43;;;;;;;1.75;0.40;;;18.70;98.80;;;;;;10130978;28;20462;-59
2022/07/01 02:13:35;;;;;;;0.50;0.40;;;19.00;98.50;;;;;;10132244;28;20068;-58
2022/07/01 02:18:25;;;;;;;0.88;0.40;;;19.00;98.50;;;;;;10132976;28;20016;-57
2022/07/01 02:23:16;;;;;;;0.40;0.40;;;18.90;98.70;;;;;;10132029;28;20279;-56
2022/07/01 02:28:08;;;;;;;0.32;0.20;;;18.60;99.00;;;;;;10122029;28;20025;-59
2022/07/01 02:32:58;;;;;;;0.63;0.40;;;18.60;99.10;;;;;;10132393;28;20119;-59
2022/07/01 02:37:49;;;;;;;2.63;0.40;;;18.40;99.10;;;;;;10130813;28;20139;-59
2022/07/01 02:42:40;;;;;;;1.55;0.30;;;18.30;99.20;;;;;;10132356;28;20028;-58
2022/07/01 02:47:33;;;;;;;1.00;0.68;;;18.20;99.10;;;;;;10131850;28;20031;-55
2022/07/01 02:52:24;;;;;;;0.65;0.50;;;18.10;99.10;;;;;;10132771;28;20071;-59
2022/07/01 02:57:14;;;;;;;0.70;0.40;;;18.10;99.20;;;;;;10132539;28;20028;-55
2022/07/01 03:02:05;;;;;;;0.22;0.20;;;18.20;98.90;;;;;;10128788;28;20402;-57
2022/07/01 03:06:56;;;;;;;1.02;0.52;;;18.20;98.70;;;;;;10122555;28;20101;-58
2022/07/01 03:11:47;;;;;;;2.35;0.50;;;18.10;98.90;;;;;;10131027;28;20083;-57
2022/07/01 03:16:38;;;;;;;0.50;0.30;;;18.20;98.70;;;;;;10118741;28;20167;-57
2022/07/01 03:21:31;;;;;;;0.40;0.15;;;18.20;98.60;;;;;;10130112;28;20055;-56
2022/07/01 03:26:21;;;;;;;0.35;0.30;;;18.00;98.70;;;;;;10130078;28;20585;-57
2022/07/01 03:31:12;;;;;;;0.50;0.30;;;17.90;98.60;;;;;;10122673;28;20120;-59
2022/07/01 03:36:03;;;;;;;0.73;0.40;;;18.00;98.40;;;;;;10133688;28;20024;-58
2022/07/01 03:40:53;;;;;;;0.55;0.40;;;17.90;98.70;;;;;;10130820;28;20036;-58
2022/07/01 03:45:44;;;;;;;1.92;0.65;;;17.90;98.60;;;;;;10131856;28;20058;-58
2022/07/01 03:50:35;;;;;;;1.20;0.38;;;18.00;98.50;;;;;;10130462;28;20112;-54
2022/07/01 03:55:25;;;;;;;0.22;0.20;;;18.20;98.40;;;;;;10130256;28;20082;-60
2022/07/01 04:00:16;;;;;;;0.50;0.40;;;18.00;98.60;;;;;;10129972;28;20111;-57
2022/07/01 04:05:07;;;;;;;0.32;0.30;;;18.00;98.60;;;;;;10130674;28;20180;-59
2022/07/01 04:09:57;;;;;;;1.02;0.30;;;18.00;98.60;;;;;;10129952;28;20044;-59
2022/07/01 04:14:48;;;;;;;0.28;0.28;;;17.90;98.50;;;;;;10130368;28;20119;-55
2022/07/01 04:19:39;;;;;;;8.98;0.60;;;17.90;98.60;;;;;;10139627;28;20021;-58
2022/07/01 04:24:32;;;;;;;0.40;0.30;;;18.00;98.50;;;;;;10137160;28;20086;-58
2022/07/01 04:29:22;;;;;;;1.10;0.30;;;17.80;98.70;;;;;;10127736;28;20027;-56
2022/07/01 04:34:13;;;;;;;0.47;0.20;;;17.70;98.80;;;;;;10137169;28;20028;-58
2022/07/01 04:39:05;;;;;;;0.45;0.30;;;17.70;99.00;;;;;;10137025;28;20145;-58
2022/07/01 04:43:55;;;;;;;2.40;0.70;;;17.80;98.90;;;;;;10119211;28;20041;-58
2022/07/01 04:48:46;;;;;;;0.60;0.40;;;17.90;98.70;;;;;;10137525;28;20433;-60
2022/07/01 04:53:37;;;;;;;0.52;0.35;;;17.80;98.90;;;;;;10137442;28;20115;-59
2022/07/01 04:58:27;;;;;;;1.88;0.60;;;17.80;98.90;;;;;;10136500;28;20039;-58
2022/07/01 05:03:18;;;;;;;1.13;0.70;;;17.70;99.10;;;;;;10118644;28;20032;-59
2022/07/01 05:08:09;;;;;;;0.65;0.50;;;17.70;98.90;;;;;;10133562;28;20487;-59
2022/07/01 05:12:59;;;;;;;0.80;0.70;;;17.70;98.90;;;;;;10135934;28;20056;-59
2022/07/01 05:22:59;;;;;;;2.35;0.68;;;17.70;98.80;;;;;;10136185;28;20099;-57
2022/07/01 05:27:50;;;;;;;0.30;0.30;;;17.80;98.60;;;;;;10126879;28;20486;-58
2022/07/01 05:32:40;;;;;;;0.90;0.57;;;17.80;98.60;;;;;;10135529;28;20036;-58
2022/07/01 05:37:31;;;;;;;0.30;0.30;;;18.00;98.40;;;;;;10135735;28;20032;-58
2022/07/01 05:42:22;;;;;;;0.68;0.40;;;18.20;98.30;;;;;;10134771;28;20021;-57
2022/07/01 05:47:12;;;;;;;0.57;0.40;;;18.30;98.20;;;;;;10135067;28;20020;-58
2022/07/01 05:52:03;;;;;;;0.80;0.50;;;18.30;98.20;;;;;;10135009;28;20012;-57
2022/07/01 05:56:54;;;;;;;2.00;0.50;;;18.30;98.30;;;;;;10134747;28;20419;-59
2022/07/01 06:01:46;;;;;;;0.82;0.50;;;18.60;98.10;;;;;;10134502;28;20032;-57
2022/07/01 06:06:36;;;;;;;0.40;0.30;;;18.30;98.10;;;;;;10133699;28;20486;-57
2022/07/01 06:11:27;;;;;;;2.40;0.30;;;18.10;98.40;;;;;;10133087;28;20036;-56
2022/07/01 06:16:18;;;;;;;0.52;0.40;;;17.90;98.40;;;;;;10133386;28;20028;-55
2022/07/01 06:21:08;;;;;;;1.05;0.52;;;18.00;98.30;;;;;;10134260;28;20497;-57
2022/07/01 06:25:59;;;;;;;1.05;0.43;;;18.20;98.00;;;;;;10134020;28;20055;-56
2022/07/01 06:30:50;;;;;;;0.68;0.40;;;18.20;98.10;;;;;;10122115;28;20044;-57
2022/07/01 06:35:40;;;;;;;4.05;1.10;;;18.10;98.10;;;;;;10112668;28;20556;-57
2022/07/01 06:40:31;;;;;;;1.67;0.80;;;18.20;98.00;;;;;;10131933;28;20025;-57
2022/07/01 06:45:22;;;;;;;0.75;0.50;;;18.20;98.00;;;;;;10132832;28;20072;-60
2022/07/01 06:50:13;;;;;;;1.45;0.60;;;18.30;97.90;;;;;;10131226;28;20048;-59
2022/07/01 06:55:04;;;;;;;0.52;0.40;;;18.30;98.00;;;;;;10131462;28;20033;-59
2022/07/01 06:59:55;;;;;;;0.88;0.70;;;18.30;98.00;;;;;;10132679;28;20032;-60
2022/07/01 07:04:46;;;;;;;0.95;0.60;;;18.40;97.80;;;;;;10130518;28;20028;-61
2022/07/01 07:09:36;;;;;;;1.48;0.77;;;18.50;97.70;;;;;;10126399;28;20048;-59
2022/07/01 07:14:27;;;;;;;1.10;0.77;;;18.50;97.80;;;;;;10127373;28;20102;-59
2022/07/01 07:19:17;;;;;;;0.93;0.50;;;18.60;97.60;;;;;;10129005;28;20020;-59
2022/07/01 07:24:08;;;;;;;0.63;0.50;;;18.70;97.60;;;;;;10130326;28;20082;-60
2022/07/01 07:28:59;;;;;;;0.65;0.60;;;18.80;97.50;;;;;;10119306;28;20032;-58
2022/07/01 07:33:49;;;;;;;0.77;0.50;;;19.00;97.40;;;;;;10120798;28;20229;-57
2022/07/01 07:38:40;;;;;;;62.67;38.85;;;19.30;97.10;;;;;;10130852;28;20138;-65
2022/07/01 07:43:31;;;;;;;19.98;14.15;;;19.50;96.90;;;;;;10110424;28;20179;-62
2022/07/01 07:48:21;;;;;;;3.28;2.15;;;19.60;96.80;;;;;;10128533;28;20032;-62
2022/07/01 07:53:12;;;;;;;3.88;1.75;;;19.70;96.70;;;;;;10118481;28;20358;-61
2022/07/01 07:58:05;;;;;;;1.55;1.27;;;19.80;96.60;;;;;;10139053;28;20066;-61
2022/07/01 08:02:56;;;;;;;2.72;1.40;;;19.80;96.60;;;;;;10142078;28;20036;-61
2022/07/01 08:07:47;;;;;;;0.95;0.85;;;20.00;96.40;;;;;;10139353;28;20284;-60
2022/07/01 08:12:38;;;;;;;1.35;0.75;;;20.40;96.10;;;;;;10139513;28;20060;-60
2022/07/01 08:17:28;;;;;;;0.80;0.73;;;20.40;96.10;;;;;;10138340;28;20636;-61
2022/07/01 08:22:19;;;;;;;2.58;0.80;;;19.70;96.50;;;;;;10138111;28;20024;-60
2022/07/01 08:27:10;;;;;;;1.23;0.90;;;19.50;96.80;;;;;;10135539;28;20033;-60
2022/07/01 08:32:00;;;;;;;1.15;0.57;;;19.60;96.90;;;;;;10132512;28;20108;-59
2022/07/01 08:36:51;;;;;;;0.98;0.60;;;19.70;96.50;;;;;;10135122;28;20173;-59
2022/07/01 08:41:42;;;;;;;3.50;1.60;;;20.00;96.20;;;;;;10127001;28;20056;-59
2022/07/01 08:46:34;;;;;;;1.95;0.95;;;20.20;96.00;;;;;;10118556;28;20616;-60
2022/07/01 08:51:24;;;;;;;2.03;0.75;;;20.50;95.90;;;;;;10136593;28;20495;-58
2022/07/01 09:01:26;;;;;;;1.35;0.90;;;20.80;95.70;;;;;;10132127;28;20043;-60
2022/07/01 09:06:19;;;;;;;0.80;0.63;;;20.80;95.70;;;;;;10133231;28;20039;-57
2022/07/01 09:11:24;;;;;;;0.73;0.57;;;20.60;95.80;;;;;;10134012;28;20127;-61
2022/07/01 09:16:16;;;;;;;;;;;20.60;95.80;;;;;;10136649;28;20024;-60
2022/07/01 09:21:08;;;;;;;0.70;0.50;;;20.70;95.60;;;;;;10136207;28;19912;-62
2022/07/01 09:25:59;;;;;;;1.60;0.60;;;20.60;95.60;;;;;;10117461;28;20079;-59
2022/07/01 09:30:54;;;;;;;0.70;0.60;;;20.50;95.60;;;;;;10132378;28;20043;-62
2022/07/01 09:35:48;;;;;;;1.30;0.40;;;20.50;95.40;;;;;;10134586;28;20386;-61
2022/07/01 09:40:50;;;;;;;1.20;0.70;;;20.40;95.30;;;;;;10134686;28;20020;-61
2022/07/01 09:45:49;;;;;;;1.30;0.80;;;20.60;95.30;;;;;;10133905;28;20032;-60
2022/07/01 09:50:40;;;;;;;3.58;1.80;;;20.30;95.40;;;;;;10119302;28;20482;-59
2022/07/01 09:55:33;;;;;;;1.70;0.88;;;20.30;95.60;;;;;;10135296;28;20420;-64
2022/07/01 10:00:25;;;;;;;1.63;0.90;;;20.60;95.40;;;;;;10131743;28;20017;-58
2022/07/01 10:05:23;;;;;;;1.20;0.82;;;21.00;95.10;;;;;;10133457;28;20475;-59
2022/07/01 10:10:41;;;;;;;1.88;0.70;;;21.20;95.10;;;;;;10131265;28;20052;-61
2022/07/01 10:15:33;;;;;;;2.03;1.00;;;21.70;94.90;;;;;;10133300;28;20029;-61
2022/07/01 10:20:27;;;;;;;1.83;0.80;;;22.00;94.70;;;;;;10123475;28;20013;-58
2022/07/01 10:25:44;;;;;;;1.85;1.10;;;22.50;94.40;;;;;;10132806;28;20032;-61
2022/07/01 10:30:34;;;;;;;2.33;1.40;;;22.80;93.90;;;;;;10118558;28;20028;-60
2022/07/01 10:35:25;;;;;;;0.80;0.73;;;22.60;94.40;;;;;;10133603;28;20034;-60
2022/07/01 10:40:16;;;;;;;2.88;1.10;;;22.40;94.30;;;;;;10129964;28;20071;-53
2022/07/01 10:45:10;;;;;;;2.22;1.30;;;22.10;94.40;;;;;;10121723;28;20052;-60
2022/07/01 10:50:16;;;;;;;2.23;1.20;;;22.20;94.20;;;;;;10133564;28;20039;-59
2022/07/01 10:55:08;;;;;;;1.60;1.20;;;22.20;93.90;;;;;;10133960;28;20135;-58
2022/07/01 10:59:59;;;;;;;0.90;0.57;;;22.20;94.10;;;;;;10134030;28;20078;-57
2022/07/01 11:04:52;;;;;;;1.02;0.88;;;22.40;93.70;;;;;;10133363;28;20044;-58
2022/07/01 11:09:43;;;;;;;2.42;1.05;;;22.50;93.60;;;;;;10132686;28;20047;-59
2022/07/01 11:14:39;;;;;;;2.63;1.00;;;22.50;93.50;;;;;;10132913;28;20033;-56
2022/07/01 11:19:30;;;;;;;1.55;0.70;;;22.40;93.40;;;;;;10115419;28;20024;-55
2022/07/01 11:24:21;;;;;;;2.00;1.13;;;22.50;93.20;;;;;;10133204;28;20526;-57
2022/07/01 11:29:13;;;;;;;5.15;1.73;;;22.70;93.10;;;;;;10135585;28;20016;-58
2022/07/01 11:34:05;;;;;;;4.00;1.08;;;23.50;92.80;;;;;;10141819;28;20034;-56
2022/07/01 11:44:07;;;;;;;1.90;1.00;;;23.20;92.90;;;;;;10135300;28;20063;-57
2022/07/01 11:48:57;;;;;;;2.55;1.38;;;23.00;93.00;;;;;;10134982;28;20031;-57
2022/07/01 11:53:56;;;;;;;2.22;1.17;;;22.70;93.10;;;;;;10136848;28;20403;-57
2022/07/01 11:58:52;;;;;;;2.80;1.55;;;22.20;93.30;;;;;;10132558;28;20111;-56
2022/07/01 12:03:42;;;;;;;1.67;0.98;;;21.90;93.50;;;;;;10143978;28;20094;-56
2022/07/01 12:08:33;;;;;;;2.38;0.65;;;21.80;93.40;;;;;;10129908;28;20025;-58
2022/07/01 12:13:25;;;;;;;3.67;1.42;;;21.70;93.30;;;;;;10138736;28;20052;-59
2022/07/01 12:18:16;;;;;;;1.77;1.30;;;21.80;93.20;;;;;;10138478;28;20554;-60
2022/07/01 12:23:13;;;;;;;2.60;0.80;;;21.90;93.20;;;;;;10138351;28;20085;-58
2022/07/01 12:28:04;;;;;;;2.20;1.00;;;22.00;93.20;;;;;;10128674;28;20025;-58
2022/07/01 12:32:55;;;;;;;1.33;0.80;;;22.20;93.10;;;;;;10137045;28;20100;-58
2022/07/01 12:37:45;;;;;;;2.40;1.60;;;22.20;93.20;;;;;;10135295;28;20093;-60
2022/07/01 12:42:42;;;;;;;2.00;0.68;;;22.10;93.30;;;;;;10141827;28;20040;-59
2022/07/01 12:47:43;;;;;;;2.10;1.38;;;22.00;93.30;;;;;;10138783;28;20031;-58
2022/07/01 12:52:34;;;;;;;3.10;0.70;;;22.00;93.60;;;;;;10141564;28;20031;-60
2022/07/01 12:57:32;;;;;;;100.97;65.22;;;21.90;93.30;;;;;;10140351;28;20031;-60
2022/07/01 13:02:23;;;;;;;28.60;16.08;;;22.20;93.10;;;;;;10137033;28;20094;-58
2022/07/01 13:07:14;;;;;;;7.35;3.78;;;22.50;92.80;;;;;;10137518;28;20035;-59
2022/07/01 13:12:05;;;;;;;5.22;2.15;;;22.50;92.90;;;;;;10136244;28;20082;-57
2022/07/01 13:16:55;;;;;;;1.95;1.23;;;23.30;92.50;;;;;;10136836;28;20033;-60
2022/07/01 13:21:46;;;;;;;1.80;1.30;;;24.60;91.90;;;;;;10135292;28;20058;-59
2022/07/01 13:26:40;;;;;;;3.10;2.10;;;25.70;91.40;;;;;;10135303;28;20513;-57
2022/07/01 13:31:30;;;;;;;;;;;27.20;90.40;;;;;;10131998;28;20025;-59
2022/07/01 13:36:21;;;;;;;1.63;1.33;;;26.40;90.60;;;;;;10135796;28;20440;-57
2022/07/01 13:41:11;;;;;;;2.50;0.82;;;25.20;91.10;;;;;;10136668;28;20522;-58
2022/07/01 13:46:03;;;;;;;3.40;1.67;;;24.80;91.00;;;;;;10134105;28;20266;-59
2022/07/01 13:50:53;;;;;;;2.40;0.80;;;24.40;90.90;;;;;;10134431;28;20111;-58
2022/07/01 13:55:44;;;;;;;0.47;0.45;;;24.30;90.60;;;;;;10133952;28;20103;-57
2022/07/01 14:00:35;;;;;;;1.23;0.52;;;24.10;90.40;;;;;;10134360;28;20089;-58
2022/07/01 14:05:25;;;;;;;1.67;0.90;;;24.00;90.20;;;;;;10134957;28;20038;-59
2022/07/01 14:10:16;;;;;;;1.08;0.70;;;24.50;89.50;;;;;;10132067;28;20044;-59
2022/07/01 14:15:07;;;;;;;1.67;0.77;;;25.30;88.20;;;;;;10138471;28;20651;-59
2022/07/01 14:19:58;;;;;;;3.25;0.70;;;28.80;84.40;;;;;;10112679;28;20024;-59
2022/07/01 14:24:48;;;;;;;5.57;3.83;;;30.60;80.50;;;;;;10131640;28;20105;-59
2022/07/01 14:29:39;;;;;;;1.10;0.77;;;30.70;80.50;;;;;;10132444;28;20032;-59
2022/07/01 14:34:30;;;;;;;3.10;0.70;;;32.40;77.50;;;;;;10123127;28;20048;-56
2022/07/01 14:39:21;;;;;;;1.70;0.70;;;31.90;76.00;;;;;;10125547;28;20024;-59
2022/07/01 14:44:11;;;;;;;1.13;0.70;;;32.50;72.10;;;;;;10114176;28;20024;-58
2022/07/01 14:49:02;;;;;;;0.70;0.70;;;32.40;69.70;;;;;;10132480;28;20016;-58
2022/07/01 14:53:52;;;;;;;1.07;0.60;;;32.70;67.10;;;;;;10132048;28;20024;-58
2022/07/01 14:58:43;;;;;;;1.13;0.53;;;33.10;64.90;;;;;;10131228;28;20013;-59
2022/07/01 15:03:34;;;;;;;30.43;23.03;;;32.50;63.90;;;;;;10120497;28;20040;-59
2022/07/01 15:08:24;;;;;;;3.80;1.77;;;33.20;62.30;;;;;;10117915;28;20505;-60
2022/07/01 15:13:15;;;;;;;1.45;1.00;;;33.00;60.70;;;;;;10131235;28;20053;-60
2022/07/01 15:18:06;;;;;;;1.88;1.40;;;30.90;61.90;;;;;;10131627;28;20052;-59
2022/07/01 15:22:57;;;;;;;2.45;0.93;;;30.30;60.60;;;;;;10132544;28;20208;-58
2022/07/01 15:27:47;;;;;;;1.95;0.70;;;28.60;62.00;;;;;;10123480;28;20530;-58
2022/07/01 15:32:38;;;;;;;0.90;0.60;;;28.00;62.00;;;;;;10133380;28;20461;-59
2022/07/01 15:37:29;;;;;;;1.30;0.93;;;30.00;60.00;;;;;;10124195;28;20029;-61
2022/07/01 15:42:21;;;;;;;0.65;0.60;;;30.70;59.20;;;;;;10122684;28;20223;-59
2022/07/01 15:48:12;;;;;;;0.55;0.50;;;29.60;59.80;;;;;;10130337;28;20426;-58
2022/07/01 15:52:31;;;;;;;0.80;0.50;;;28.00;61.10;;;;;;10106964;28;20131;-60
2022/07/01 15:57:22;;;;;;;2.25;0.70;;;27.30;61.70;;;;;;10130874;28;20538;-60
2022/07/01 16:02:13;;;;;;;1.27;1.17;;;26.80;61.80;;;;;;10130749;28;20032;-61
2022/07/01 16:07:05;;;;;;;3.55;1.50;;;26.70;62.20;;;;;;10130587;28;20036;-60
2022/07/01 16:11:56;;;;;;;2.28;1.20;;;28.00;79.70;;;;;;10132835;28;20089;-62
2022/07/01 16:16:48;;;;;;;1.85;1.30;;;27.80;67.70;;;;;;10139654;28;20030;-61
2022/07/01 16:21:41;;;;;;;1.45;0.60;;;26.20;72.30;;;;;;10134695;28;20483;-59
2022/07/01 16:26:33;;;;;;;1.33;0.80;;;26.20;63.70;;;;;;10134750;28;20072;-61
2022/07/01 16:31:24;;;;;;;1.13;0.82;;;26.30;63.60;;;;;;10129607;28;20013;-63
2022/07/01 16:36:34;;;;;;;0.98;0.73;;;28.20;63.00;;;;;;10138433;28;20025;-66
2022/07/01 16:41:45;;;;;;;1.30;0.90;;;29.40;61.50;;;;;;10124782;28;20107;-62
2022/07/01 16:46:40;;;;;;;2.10;0.60;;;30.40;61.70;;;;;;10127443;28;20040;-64
2022/07/01 16:51:32;;;;;;;0.75;0.60;;;30.50;60.60;;;;;;10117384;28;20035;-55
2022/07/01 16:56:25;;;;;;;0.50;0.50;;;31.50;58.50;;;;;;10133021;28;20016;-54
2022/07/01 17:01:16;;;;;;;1.33;0.45;;;29.60;59.80;;;;;;10127509;28;20032;-57
2022/07/01 17:06:08;;;;;;;1.23;0.60;;;29.20;59.80;;;;;;10133513;28;20135;-57
2022/07/01 17:10:59;;;;;;;0.90;0.70;;;28.50;60.60;;;;;;10133649;28;20043;-61
2022/07/01 17:15:50;;;;;;;0.93;0.60;;;30.20;58.60;;;;;;10133143;28;20480;-54
2022/07/01 17:20:43;;;;;;;0.80;0.60;;;32.70;55.70;;;;;;10134588;28;20040;-58
2022/07/01 17:25:43;;;;;;;1.98;0.80;;;35.90;52.30;;;;;;10133300;28;20427;-59
2022/07/01 17:30:43;;;;;;;1.60;1.20;;;36.80;49.70;;;;;;10126670;28;20021;-58
2022/07/01 17:35:37;;;;;;;3.40;0.90;;;36.20;48.70;;;;;;10134870;28;20039;-53
2022/07/01 17:40:32;;;;;;;0.60;0.57;;;35.70;48.30;;;;;;10135476;28;20023;-61
2022/07/01 17:45:24;;;;;;;2.55;2.08;;;32.20;51.20;;;;;;10134377;28;20479;-62
2022/07/01 17:50:17;;;;;;;0.80;0.70;;;34.80;49.00;;;;;;10135290;28;20020;-56
2022/07/01 17:55:08;;;;;;;1.40;0.90;;;35.80;47.70;;;;;;10133809;28;20032;-61
2022/07/01 18:00:01;;;;;;;1.45;0.47;;;36.30;47.40;;;;;;10135285;28;20016;-52
2022/07/01 18:04:52;;;;;;;;;;;34.70;47.80;;;;;;10116199;28;20280;-61
2022/07/01 18:09:43;;;;;;;2.03;0.75;;;32.40;49.20;;;;;;10133983;28;20299;-54
2022/07/01 18:14:52;;;;;;;1.90;1.20;;;29.50;52.00;;;;;;10116923;28;20028;-52
2022/07/01 18:20:13;;;;;;;1.50;1.30;;;27.50;53.30;;;;;;10111906;28;20036;-56
2022/07/01 18:25:05;;;;;;;1.77;0.95;;;27.00;53.40;;;;;;10125101;28;20059;-52
2022/07/01 18:29:59;;;;;;;2.08;0.73;;;26.10;54.00;;;;;;10124430;28;20032;-54
2022/07/01 18:34:55;;;;;;;1.00;0.63;;;25.50;54.30;;;;;;10126008;28;20120;-52
2022/07/01 18:39:46;;;;;;;1.52;0.77;;;25.30;54.50;;;;;;10121516;28;20106;-55
2022/07/01 18:44:37;;;;;;;2.45;1.13;;;25.20;54.70;;;;;;10133083;28;20524;-57
2022/07/01 18:49:28;;;;;;;1.85;0.90;;;24.90;55.10;;;;;;10133018;28;20490;-54
2022/07/01 18:54:18;;;;;;;2.03;0.50;;;24.70;55.40;;;;;;10133232;28;20062;-55
2022/07/01 18:59:09;;;;;;;1.20;0.80;;;24.60;55.80;;;;;;10132951;28;20024;-55
2022/07/01 19:04:00;;;;;;;2.15;1.15;;;24.50;56.00;;;;;;10132442;28;20119;-59
2022/07/01 19:08:50;;;;;;;4.68;2.10;;;24.50;56.40;;;;;;10132154;28;20021;-56
2022/07/01 19:13:41;;;;;;;5.53;2.13;;;24.30;56.60;;;;;;10132199;28;20049;-54
2022/07/01 19:18:32;;;;;;;8.18;3.72;;;24.10;57.10;;;;;;10132567;28;20507;-65
2022/07/01 19:23:23;;;;;;;3.13;1.30;;;24.00;57.40;;;;;;10132930;28;20040;-64
2022/07/01 19:28:13;;;;;;;4.10;2.67;;;23.90;57.50;;;;;;10132893;28;20021;-57
2022/07/01 19:33:04;;;;;;;2.78;1.42;;;24.00;57.80;;;;;;10122847;28;20017;-60
2022/07/01 19:37:57;;;;;;;4.47;1.67;;;24.10;57.90;;;;;;10129978;28;20029;-55
2022/07/01 19:42:48;;;;;;;2.22;1.20;;;24.10;58.30;;;;;;10113144;28;20196;-61
2022/07/01 19:47:38;;;;;;;1.65;0.95;;;23.90;58.30;;;;;;10135109;28;20099;-60
2022/07/01 19:52:29;;;;;;;1.33;1.00;;;23.80;59.00;;;;;;10139956;28;20454;-57
2022/07/01 19:57:20;;;;;;;5.65;2.65;;;23.70;59.00;;;;;;10136684;28;20024;-62
2022/07/01 20:02:10;;;;;;;2.33;1.60;;;23.70;59.30;;;;;;10133268;28;20081;-62
2022/07/01 20:07:02;;;;;;;3.55;2.38;;;23.60;59.60;;;;;;10133860;28;20032;-60
2022/07/01 20:11:53;;;;;;;3.00;1.15;;;23.40;60.20;;;;;;10109759;28;20068;-65
2022/07/01 20:16:43;;;;;;;3.15;1.42;;;23.20;60.50;;;;;;10132422;28;20035;-66
2022/07/01 20:21:35;;;;;;;3.70;1.63;;;23.10;61.00;;;;;;10140068;28;20039;-62
2022/07/01 20:26:25;;;;;;;2.75;1.40;;;23.10;61.30;;;;;;10138926;28;20080;-61
2022/07/01 20:31:16;;;;;;;3.42;1.85;;;23.30;61.20;;;;;;10117535;28;20091;-59
2022/07/01 20:36:07;;;;;;;3.72;2.83;;;23.30;61.30;;;;;;10137863;28;20036;-52
2022/07/01 20:40:57;;;;;;;3.47;2.20;;;23.20;61.70;;;;;;10137703;28;20020;-64
2022/07/01 20:45:48;;;;;;;3.95;2.40;;;23.10;62.20;;;;;;10137331;28;20040;-56
2022/07/01 20:50:39;;;;;;;5.32;3.10;;;22.90;62.40;;;;;;10138548;28;20024;-52
2022/07/01 20:55:30;;;;;;;5.05;2.35;;;22.80;62.80;;;;;;10137317;28;20524;-56
2022/07/01 21:00:20;;;;;;;1.73;1.45;;;22.80;63.20;;;;;;10138312;28;20479;-50
2022/07/01 21:05:12;;;;;;;1.95;1.40;;;22.70;63.20;;;;;;10138625;28;20040;-60
2022/07/01 21:10:03;;;;;;;2.92;1.50;;;22.50;63.70;;;;;;10137587;28;20068;-54
2022/07/01 21:14:54;;;;;;;2.53;1.55;;;22.50;64.10;;;;;;10136351;28;20035;-49
2022/07/01 21:19:44;;;;;;;2.70;2.00;;;22.50;64.10;;;;;;10119099;28;20027;-49
2022/07/01 21:24:35;;;;;;;2.85;1.92;;;22.40;64.50;;;;;;10136031;28;20111;-53
2022/07/01 21:29:26;;;;;;;3.03;1.95;;;22.30;64.70;;;;;;10127091;28;20056;-52
2022/07/01 21:34:16;;;;;;;3.80;2.08;;;22.30;65.20;;;;;;10136066;28;20495;-52
2022/07/01 21:39:07;;;;;;;4.00;1.38;;;22.30;65.50;;;;;;10136400;28;20039;-53
2022/07/01 21:44:01;;;;;;;2.20;1.08;;;22.30;65.40;;;;;;10136097;28;20029;-52
2022/07/01 21:48:52;;;;;;;2.78;1.67;;;22.10;66.00;;;;;;10135930;28;20009;-50
2022/07/01 21:53:44;;;;;;;2.50;1.40;;;22.00;66.30;;;;;;10135220;28;20025;-49
2022/07/01 21:58:40;;;;;;;2.90;1.70;;;22.10;66.70;;;;;;10134555;28;20486;-58
2022/07/01 22:03:33;;;;;;;2.63;1.70;;;22.10;67.10;;;;;;10135353;28;20403;-54
2022/07/01 22:08:24;;;;;;;9.88;2.55;;;22.10;67.40;;;;;;10133787;28;20733;-49
2022/07/01 22:13:16;;;;;;;5.93;2.35;;;22.00;67.80;;;;;;10135016;28;20348;-54
2022/07/01 22:18:08;;;;;;;6.05;3.60;;;22.10;68.00;;;;;;10140925;28;20024;-54
2022/07/01 22:23:00;;;;;;;3.90;2.85;;;21.90;68.50;;;;;;10139024;28;20032;-54
2022/07/01 22:27:52;;;;;;;3.72;2.47;;;21.90;69.00;;;;;;10126638;28;20029;-58
2022/07/01 22:32:46;;;;;;;3.38;2.10;;;21.80;69.40;;;;;;10134370;28;20016;-52
2022/07/01 22:37:39;;;;;;;6.10;2.63;;;21.70;69.80;;;;;;10132980;28;20036;-52
2022/07/01 22:42:32;;;;;;;29.60;14.90;;;21.60;70.20;;;;;;10132532;28;20162;-49
2022/07/01 22:47:25;;;;;;;8.82;5.97;;;21.60;70.80;;;;;;10132636;28;20081;-53
2022/07/01 22:52:20;;;;;;;6.10;3.63;;;21.60;71.40;;;;;;10133728;28;20027;-51
2022/07/01 22:57:21;;;;;;;5.55;3.17;;;21.40;72.10;;;;;;10132691;28;20024;-58
2022/07/01 23:02:17;;;;;;;3.78;2.60;;;21.50;73.00;;;;;;10131695;28;20020;-49
2022/07/01 23:07:16;;;;;;;22.88;16.55;;;21.50;73.40;;;;;;10132230;28;20447;-52
2022/07/01 23:12:10;;;;;;;10.23;6.45;;;21.50;73.80;;;;;;10132271;28;20055;-50
2022/07/01 23:17:03;;;;;;;6.60;4.53;;;21.50;74.20;;;;;;10131441;28;20119;-57
2022/07/01 23:21:56;;;;;;;5.53;3.85;;;21.20;75.40;;;;;;10132233;28;20021;-56
2022/07/01 23:26:52;;;;;;;5.10;3.40;;;21.20;76.00;;;;;;10132031;28;20503;-51
2022/07/01 23:31:44;;;;;;;3.63;2.97;;;21.00;76.60;;;;;;10125632;28;20017;-56
2022/07/01 23:36:35;;;;;;;70.72;44.95;;;21.00;77.10;;;;;;10113836;28;20082;-57
2022/07/01 23:41:27;;;;;;;22.48;14.40;;;20.80;78.20;;;;;;10132489;28;20153;-57
2022/07/01 23:46:18;;;;;;;6.50;3.90;;;20.90;78.60;;;;;;10131145;28;20127;-52
2022/07/01 23:51:09;;;;;;;2.17;1.77;;;20.70;79.50;;;;;;10131349;28;20160;-54
2022/07/01 23:56:00;;;;;;;2.25;1.92;;;20.40;80.10;;;;;;10130566;28;20192;-57
